createdAt,value
2022-11-12T00:02:16.269Z,6.20
2022-11-12T00:05:08.316Z,6.30
2022-11-12T00:10:50.459Z,6.30
2022-11-12T00:13:42.270Z,6.30
2022-11-12T00:16:33.247Z,6.40
2022-11-12T00:19:24.235Z,6.60
2022-11-12T00:28:04.425Z,6.50
2022-11-12T00:30:55.117Z,6.40
2022-11-12T00:33:46.532Z,6.30
2022-11-12T00:36:36.950Z,6.20
2022-11-12T00:39:29.477Z,6.20
2022-11-12T00:42:20.129Z,6.10
2022-11-12T00:45:11.633Z,6.20
2022-11-12T00:48:02.409Z,6.10
2022-11-12T00:51:09.761Z,6.20
2022-11-12T00:59:43.268Z,6.20
2022-11-12T01:02:42.211Z,6.10
2022-11-12T01:05:34.711Z,6.10
2022-11-12T01:08:26.261Z,6.20
2022-11-12T01:11:29.691Z,6.20
2022-11-12T01:14:21.489Z,6.20
2022-11-12T01:17:12.001Z,6.30
2022-11-12T01:20:03.345Z,6.30
2022-11-12T01:22:53.716Z,6.30
2022-11-12T01:25:45.068Z,6.30
2022-11-12T01:28:36.096Z,6.20
2022-11-12T01:31:34.070Z,6.10
2022-11-12T01:37:16.806Z,6.10
2022-11-12T01:40:08.334Z,5.90
2022-11-12T01:45:52.778Z,5.90
2022-11-12T01:48:56.672Z,6.00
2022-11-12T01:51:50.965Z,5.90
2022-11-12T01:54:43.342Z,5.80
2022-11-12T01:58:01.084Z,5.60
2022-11-12T02:00:52.799Z,5.50
2022-11-12T02:03:44.504Z,5.50
2022-11-12T02:06:36.771Z,5.60
2022-11-12T02:09:28.627Z,5.60
2022-11-12T02:12:38.110Z,5.60
2022-11-12T02:18:20.467Z,5.70
2022-11-12T02:24:11.818Z,5.60
2022-11-12T02:27:05.497Z,5.60
2022-11-12T02:29:56.242Z,5.40
2022-11-12T02:35:38.201Z,5.20
2022-11-12T02:38:29.852Z,5.20
2022-11-12T02:41:20.999Z,5.00
2022-11-12T02:44:12.638Z,5.20
2022-11-12T02:52:46.797Z,5.20
2022-11-12T02:58:30.572Z,5.40
2022-11-12T03:01:22.159Z,5.50
2022-11-12T03:04:13.170Z,5.50
2022-11-12T03:07:03.922Z,5.60
2022-11-12T03:12:47.394Z,5.70
2022-11-12T03:21:21.144Z,5.60
2022-11-12T03:27:04.613Z,5.40
2022-11-12T03:29:55.501Z,5.30
2022-11-12T03:32:46.397Z,5.30
2022-11-12T03:35:37.775Z,5.10
2022-11-12T03:41:21.207Z,5.10
2022-11-12T03:44:11.621Z,5.00
2022-11-12T03:47:02.776Z,5.00
2022-11-12T03:49:53.501Z,5.00
2022-11-12T03:52:50.874Z,5.00
2022-11-12T03:55:42.351Z,5.00
2022-11-12T03:58:32.621Z,4.90
2022-11-12T04:04:14.911Z,4.90
2022-11-12T04:07:24.648Z,6.30
2022-11-12T04:13:25.325Z,5.10
2022-11-12T04:16:52.464Z,5.20
2022-11-12T04:20:01.764Z,5.20
2022-11-12T04:22:52.302Z,5.20
2022-11-12T04:26:02.898Z,5.30
2022-11-12T04:32:03.591Z,5.60
2022-11-12T04:34:54.469Z,5.60
2022-11-12T04:41:15.747Z,5.30
2022-11-12T04:44:26.749Z,5.20
2022-11-12T04:47:17.865Z,4.90
2022-11-12T04:50:17.716Z,4.70
2022-11-12T04:53:09.137Z,4.70
2022-11-12T04:56:00.599Z,4.70
2022-11-12T04:58:51.206Z,4.70
2022-11-12T05:01:42.926Z,4.70
2022-11-12T05:04:33.818Z,4.70
2022-11-12T05:07:24.503Z,4.50
2022-11-12T05:10:17.143Z,4.50
2022-11-12T05:15:59.000Z,4.50
2022-11-12T05:18:50.633Z,4.50
2022-11-12T05:22:00.340Z,4.60
2022-11-12T05:24:53.245Z,4.70
2022-11-12T05:27:44.381Z,4.80
2022-11-12T05:30:36.003Z,4.80
2022-11-12T05:33:26.537Z,4.80
2022-11-12T05:36:18.019Z,4.70
2022-11-12T05:39:08.755Z,4.70
2022-11-12T05:45:08.197Z,4.50
2022-11-12T05:47:59.343Z,4.50
2022-11-12T05:51:12.073Z,4.50
2022-11-12T05:54:03.518Z,4.40
2022-11-12T05:56:54.426Z,4.30
2022-11-12T05:59:45.791Z,4.20
2022-11-12T06:02:36.982Z,4.30
2022-11-12T06:05:27.897Z,4.30
2022-11-12T06:08:19.600Z,4.40
2022-11-12T06:11:10.354Z,4.50
2022-11-12T06:14:02.576Z,4.40
2022-11-12T06:16:56.694Z,4.40
2022-11-12T06:25:30.764Z,4.20
2022-11-12T06:28:21.445Z,4.10
2022-11-12T06:31:13.882Z,3.90
2022-11-12T06:34:05.162Z,3.90
2022-11-12T06:36:56.066Z,3.90
2022-11-12T06:42:38.598Z,4.10
2022-11-12T06:45:29.475Z,4.20
2022-11-12T06:51:20.824Z,4.40
2022-11-12T06:54:11.512Z,4.50
2022-11-12T06:59:55.752Z,4.80
2022-11-12T07:05:39.248Z,4.90
2022-11-12T07:08:30.112Z,4.70
2022-11-12T07:11:21.319Z,4.70
2022-11-12T07:20:00.743Z,6.60
2022-11-12T07:23:01.774Z,5.60
2022-11-12T07:26:01.900Z,5.70
2022-11-12T07:28:56.895Z,5.80
2022-11-12T07:31:47.524Z,5.90
2022-11-12T07:37:29.863Z,6.00
2022-11-12T07:43:12.658Z,5.90
2022-11-12T07:46:11.810Z,5.80
2022-11-12T07:51:54.564Z,6.10
2022-11-12T07:54:45.230Z,6.20
2022-11-12T08:03:20.336Z,6.20
2022-11-12T08:06:11.004Z,6.00
2022-11-12T08:09:05.918Z,6.10
2022-11-12T08:11:56.578Z,6.20
2022-11-12T08:14:47.695Z,6.20
2022-11-12T08:17:41.114Z,6.20
2022-11-12T08:20:32.680Z,6.20
2022-11-12T08:26:18.531Z,6.00
2022-11-12T08:32:01.294Z,6.30
2022-11-12T08:34:52.400Z,6.30
2022-11-12T08:37:42.967Z,6.40
2022-11-12T08:43:26.005Z,6.50
2022-11-12T08:49:07.883Z,6.60
2022-11-12T08:54:50.155Z,6.70
2022-11-12T08:57:43.732Z,6.70
2022-11-12T09:00:39.558Z,6.80
2022-11-12T09:03:30.387Z,6.80
2022-11-12T09:09:12.359Z,6.90
2022-11-12T09:12:12.411Z,6.90
2022-11-12T09:15:36.138Z,6.90
2022-11-12T09:18:18.676Z,6.90
2022-11-12T09:21:13.008Z,7.00
2022-11-12T09:24:04.159Z,7.30
2022-11-12T09:26:54.444Z,7.50
2022-11-12T09:29:45.468Z,7.60
2022-11-12T09:32:36.015Z,7.80
2022-11-12T09:35:27.559Z,8.00
2022-11-12T09:38:19.602Z,8.20
2022-11-12T09:41:21.003Z,8.20
2022-11-12T09:44:18.777Z,8.10
2022-11-12T09:47:45.880Z,8.20
2022-11-12T09:50:55.323Z,8.20
2022-11-12T09:53:56.374Z,8.00
2022-11-12T09:56:51.841Z,7.90
2022-11-12T10:02:55.738Z,7.80
2022-11-12T10:05:59.238Z,8.00
2022-11-12T10:09:05.185Z,8.00
2022-11-12T10:12:32.723Z,8.00
2022-11-12T10:16:11.054Z,8.00
2022-11-12T10:19:32.670Z,8.00
2022-11-12T10:22:53.620Z,8.10
2022-11-12T10:25:47.583Z,8.30
2022-11-12T10:29:13.295Z,8.40
2022-11-12T10:32:03.900Z,8.30
2022-11-12T10:34:55.307Z,8.30
2022-11-12T10:38:13.316Z,8.40
2022-11-12T10:41:23.232Z,8.40
2022-11-12T10:44:17.166Z,8.50
2022-11-12T10:47:29.318Z,8.60
2022-11-12T10:50:43.232Z,8.50
2022-11-12T10:53:40.841Z,8.60
2022-11-12T10:56:32.471Z,8.50
2022-11-12T10:59:25.843Z,8.60
2022-11-12T11:02:19.492Z,8.90
2022-11-12T11:05:31.186Z,8.90
2022-11-12T11:08:47.254Z,8.80
2022-11-12T11:11:48.935Z,8.60
2022-11-12T11:14:40.578Z,8.80
2022-11-12T11:17:31.769Z,9.00
2022-11-12T11:20:44.664Z,9.10
2022-11-12T11:23:52.063Z,8.90
2022-11-12T11:26:54.986Z,8.90
2022-11-12T11:30:16.990Z,9.00
2022-11-12T11:33:59.506Z,9.30
2022-11-12T11:37:29.806Z,9.50
2022-11-12T11:40:43.593Z,9.60
2022-11-12T11:43:56.712Z,9.40
2022-11-12T11:46:58.837Z,9.40
2022-11-12T11:50:14.908Z,9.50
2022-11-12T11:53:30.067Z,9.40
2022-11-12T11:59:44.125Z,9.70
2022-11-12T12:03:23.172Z,9.70
2022-11-12T12:06:27.331Z,9.50
2022-11-12T12:09:47.800Z,9.60
2022-11-12T12:12:50.954Z,9.40
2022-11-12T12:16:20.865Z,9.40
2022-11-12T12:19:47.723Z,9.30
2022-11-12T12:25:41.520Z,9.40
2022-11-12T12:28:53.223Z,9.40
2022-11-12T12:31:52.447Z,9.20
2022-11-12T12:35:09.934Z,9.40
2022-11-12T12:38:12.039Z,9.30
2022-11-12T12:41:40.160Z,9.30
2022-11-12T12:45:04.941Z,9.20
2022-11-12T12:47:58.195Z,9.20
2022-11-12T12:50:51.964Z,9.20
2022-11-12T12:56:35.034Z,9.00
2022-11-12T12:59:26.229Z,9.00
2022-11-12T13:02:23.537Z,9.10
2022-11-12T13:05:30.488Z,9.10
2022-11-12T13:08:26.727Z,9.20
2022-11-12T13:12:01.514Z,9.60
2022-11-12T13:15:12.484Z,10.60
2022-11-12T13:18:02.839Z,10.00
2022-11-12T13:21:16.611Z,9.60
2022-11-12T13:24:12.841Z,9.40
2022-11-12T13:27:04.352Z,9.30
2022-11-12T13:35:41.422Z,12.00
2022-11-12T13:38:38.377Z,9.00
2022-11-12T13:44:41.412Z,9.10
2022-11-12T13:50:25.442Z,9.10
2022-11-12T13:53:24.584Z,9.00
2022-11-12T13:56:34.568Z,8.90
2022-11-12T13:59:26.838Z,9.00
2022-11-12T14:02:27.289Z,9.00
2022-11-12T14:05:23.387Z,9.00
2022-11-12T14:08:53.628Z,9.00
2022-11-12T14:12:02.040Z,8.90
2022-11-12T14:15:10.459Z,8.80
2022-11-12T14:18:13.353Z,8.80
2022-11-12T14:21:12.048Z,8.80
2022-11-12T14:29:48.301Z,8.90
2022-11-12T14:32:43.077Z,8.90
2022-11-12T14:35:37.940Z,8.80
2022-11-12T14:38:50.076Z,8.70
2022-11-12T14:41:43.536Z,8.70
2022-11-12T14:44:37.503Z,8.80
2022-11-12T14:50:40.740Z,8.90
2022-11-12T14:53:42.734Z,8.80
2022-11-12T14:56:51.750Z,8.80
2022-11-12T14:59:43.402Z,8.80
2022-11-12T15:02:55.278Z,8.70
2022-11-12T15:06:10.048Z,8.70
2022-11-12T15:09:00.640Z,8.70
2022-11-12T15:14:44.079Z,8.70
2022-11-12T15:17:37.001Z,8.60
2022-11-12T15:20:28.663Z,8.70
2022-11-12T15:26:24.302Z,8.70
2022-11-12T15:29:34.150Z,8.60
2022-11-12T15:35:25.569Z,8.80
2022-11-12T15:38:28.708Z,8.70
2022-11-12T15:41:27.689Z,8.60
2022-11-12T15:44:19.053Z,8.50
2022-11-12T15:47:21.535Z,8.30
2022-11-12T15:50:18.651Z,8.30
2022-11-12T15:53:10.328Z,8.10
2022-11-12T15:58:54.156Z,8.00
2022-11-12T16:01:45.328Z,8.00
2022-11-12T16:10:20.698Z,8.00
2022-11-12T16:13:29.552Z,8.10
2022-11-12T16:19:16.626Z,8.10
2022-11-12T16:22:12.497Z,8.20
2022-11-12T16:25:03.457Z,8.20
2022-11-12T16:27:55.997Z,8.20
2022-11-12T16:30:48.484Z,8.10
2022-11-12T16:36:30.622Z,8.20
2022-11-12T16:39:21.457Z,8.30
2022-11-12T16:42:12.359Z,8.30
2022-11-12T16:45:02.936Z,8.30
2022-11-12T16:47:56.212Z,8.40
2022-11-12T16:50:48.074Z,8.40
2022-11-12T16:53:39.073Z,8.40
2022-11-12T16:56:29.893Z,8.40
2022-11-12T17:02:17.700Z,8.40
2022-11-12T17:05:20.728Z,8.40
2022-11-12T17:20:11.355Z,8.30
2022-11-12T17:26:02.169Z,8.40
2022-11-12T17:31:52.442Z,8.40
2022-11-12T17:40:25.848Z,8.40
2022-11-12T17:46:09.919Z,8.30
2022-11-12T17:49:00.784Z,8.40
2022-11-12T17:51:51.917Z,8.40
2022-11-12T17:54:42.562Z,8.30
2022-11-12T17:57:33.569Z,8.20
2022-11-12T18:00:24.116Z,8.20
2022-11-12T18:06:12.253Z,8.30
2022-11-12T18:09:12.826Z,8.20
2022-11-12T18:12:03.732Z,8.10
2022-11-12T18:14:55.117Z,8.10
2022-11-12T18:20:38.060Z,8.10
2022-11-12T18:23:28.563Z,8.00
2022-11-12T18:26:21.369Z,8.00
2022-11-12T18:29:13.233Z,8.00
2022-11-12T18:32:04.039Z,7.90
2022-11-12T18:34:54.380Z,8.00
2022-11-12T18:37:46.886Z,8.00
2022-11-12T18:43:29.828Z,8.00
2022-11-12T18:46:21.061Z,8.10
2022-11-12T18:49:11.486Z,8.20
2022-11-12T18:52:02.835Z,8.20
2022-11-12T18:54:53.504Z,8.20
2022-11-12T19:00:38.404Z,8.10
2022-11-12T19:03:29.971Z,8.10
2022-11-12T19:06:21.431Z,9.00
2022-11-12T19:09:14.384Z,8.30
2022-11-12T19:12:05.312Z,8.10
2022-11-12T19:14:56.716Z,8.00
2022-11-12T19:20:40.354Z,8.40
2022-11-12T19:23:31.682Z,7.90
2022-11-12T19:26:24.267Z,7.80
2022-11-12T19:29:15.444Z,7.90
2022-11-12T19:32:07.914Z,7.90
2022-11-12T19:34:58.544Z,7.80
2022-11-12T19:37:49.922Z,7.80
2022-11-12T19:40:40.987Z,7.80
2022-11-12T19:43:32.457Z,7.80
2022-11-12T19:46:22.982Z,7.80
2022-11-12T19:52:05.208Z,7.80
2022-11-12T19:54:56.402Z,7.90
2022-11-12T20:00:38.620Z,7.80
2022-11-12T20:03:30.474Z,7.70
2022-11-12T20:06:25.888Z,7.60
2022-11-12T20:12:08.476Z,7.50
2022-11-12T20:14:59.086Z,7.30
2022-11-12T20:17:49.648Z,7.40
2022-11-12T20:20:40.795Z,7.30
2022-11-12T20:23:33.742Z,7.30
2022-11-12T20:26:25.574Z,7.40
2022-11-12T20:29:16.137Z,7.40
2022-11-12T20:34:58.148Z,7.40
2022-11-12T20:43:33.998Z,7.60
2022-11-12T20:46:27.126Z,7.70
2022-11-12T20:49:18.557Z,7.80
2022-11-12T20:52:09.635Z,7.70
2022-11-12T20:55:00.707Z,7.90
2022-11-12T20:57:51.856Z,7.90
2022-11-12T21:00:43.107Z,7.90
2022-11-12T21:06:28.982Z,7.80
2022-11-12T21:09:20.100Z,7.70
2022-11-12T21:12:11.758Z,7.80
2022-11-12T21:17:54.522Z,7.90
2022-11-12T21:20:46.969Z,7.80
2022-11-12T21:23:41.413Z,7.80
2022-11-12T21:26:32.729Z,7.70
2022-11-12T21:29:23.694Z,7.60
2022-11-12T21:32:14.352Z,7.60
2022-11-12T21:37:57.719Z,7.70
2022-11-12T21:40:48.815Z,7.70
2022-11-12T21:43:43.696Z,7.40
2022-11-12T21:46:37.655Z,7.60
2022-11-12T21:49:28.167Z,7.70
2022-11-12T21:52:19.716Z,7.60
2022-11-12T21:55:10.783Z,7.60
2022-11-12T21:58:01.560Z,7.50
2022-11-12T22:00:52.164Z,7.50
2022-11-12T22:03:45.121Z,7.50
2022-11-12T22:06:38.537Z,7.40
2022-11-12T22:09:29.061Z,7.40
2022-11-12T22:15:11.773Z,7.20
2022-11-12T22:18:03.741Z,7.30
2022-11-12T22:21:06.530Z,7.30
2022-11-12T22:23:59.289Z,7.10
2022-11-12T22:26:49.761Z,7.00
2022-11-12T22:32:31.926Z,6.90
2022-11-12T22:35:22.961Z,6.80
2022-11-12T22:41:08.190Z,6.80
2022-11-12T22:44:01.512Z,6.70
2022-11-12T22:46:52.644Z,6.70
2022-11-12T22:49:43.115Z,6.80
2022-11-12T22:52:34.656Z,6.80
2022-11-12T22:55:25.183Z,6.90
2022-11-12T23:01:20.956Z,6.70
2022-11-12T23:04:12.356Z,6.80
2022-11-12T23:07:03.646Z,6.80
2022-11-12T23:09:54.871Z,6.80
2022-11-12T23:12:46.372Z,6.80
2022-11-12T23:15:36.997Z,6.70
2022-11-12T23:21:27.496Z,6.40
2022-11-12T23:24:19.293Z,6.40
2022-11-12T23:30:01.473Z,6.50
2022-11-12T23:35:43.553Z,6.30
2022-11-12T23:38:35.552Z,6.30
2022-11-12T23:41:27.411Z,6.40
2022-11-12T23:47:10.588Z,6.50
2022-11-12T23:50:01.591Z,6.60
2022-11-12T23:55:45.254Z,6.40
2022-11-12T23:58:38.638Z,6.30
